createdAt,value
2019-06-07T00:02:30.740Z,95.80
2019-06-07T00:07:45.624Z,95.80
2019-06-07T00:12:52.827Z,95.80
2019-06-07T00:18:05.012Z,96.00
2019-06-07T00:23:14.767Z,96.30
2019-06-07T00:28:22.505Z,96.30
2019-06-07T00:33:28.088Z,96.50
2019-06-07T00:38:41.916Z,96.40
2019-06-07T00:43:45.434Z,96.40
2019-06-07T00:48:55.213Z,96.50
2019-06-07T00:54:07.733Z,96.60
2019-06-07T00:59:14.654Z,96.60
2019-06-07T01:04:25.965Z,96.50
2019-06-07T01:09:55.348Z,96.70
2019-06-07T01:14:48.376Z,96.90
2019-06-07T01:19:49.791Z,97.00
2019-06-07T01:24:59.055Z,97.00
2019-06-07T01:30:07.235Z,97.00
2019-06-07T01:35:20.220Z,97.00
2019-06-07T01:40:32.578Z,97.40
2019-06-07T01:45:47.619Z,97.20
2019-06-07T01:50:42.552Z,97.30
2019-06-07T01:55:48.909Z,97.30
2019-06-07T02:00:58.241Z,97.30
2019-06-07T02:06:18.426Z,97.20
2019-06-07T02:11:11.012Z,97.30
2019-06-07T02:16:19.324Z,97.40
2019-06-07T02:21:34.068Z,97.70
2019-06-07T02:26:41.934Z,97.80
2019-06-07T02:31:53.956Z,97.50
2019-06-07T02:37:01.854Z,97.60
2019-06-07T02:42:10.961Z,98.00
2019-06-07T02:47:19.569Z,98.10
2019-06-07T02:52:42.766Z,98.00
2019-06-07T02:57:46.771Z,97.70
2019-06-07T03:02:46.347Z,97.30
2019-06-07T03:08:11.243Z,97.60
2019-06-07T03:13:28.583Z,97.30
2019-06-07T03:18:41.762Z,97.50
2019-06-07T03:23:51.469Z,97.40
2019-06-07T03:29:02.814Z,97.60
2019-06-07T03:34:10.892Z,97.70
2019-06-07T03:39:48.149Z,97.80
2019-06-07T03:44:41.588Z,97.70
2019-06-07T03:49:45.554Z,97.70
2019-06-07T03:54:50.369Z,97.70
2019-06-07T04:00:08.620Z,98.00
2019-06-07T04:05:19.536Z,98.20
2019-06-07T04:10:48.529Z,98.10
2019-06-07T04:15:53.111Z,98.30
2019-06-07T04:21:02.078Z,98.40
2019-06-07T04:27:45.104Z,98.50
2019-06-07T04:31:18.006Z,98.70
2019-06-07T04:36:46.018Z,98.50
2019-06-07T04:41:47.263Z,98.30
2019-06-07T04:47:16.270Z,98.20
2019-06-07T04:52:20.684Z,98.20
2019-06-07T04:57:25.151Z,98.30
2019-06-07T05:02:29.619Z,98.60
2019-06-07T05:07:35.143Z,98.40
2019-06-07T05:12:43.966Z,98.20
2019-06-07T05:17:46.285Z,97.60
2019-06-07T05:22:50.701Z,97.40
2019-06-07T05:27:55.153Z,97.30
2019-06-07T05:32:59.778Z,97.40
2019-06-07T05:38:04.506Z,97.00
2019-06-07T05:43:12.430Z,97.30
2019-06-07T05:48:16.828Z,97.00
2019-06-07T05:53:22.738Z,96.70
2019-06-07T05:58:27.230Z,96.10
2019-06-07T06:03:31.724Z,96.20
2019-06-07T06:08:37.741Z,96.10
2019-06-07T06:14:03.539Z,95.60
2019-06-07T06:18:49.218Z,94.90
2019-06-07T06:23:54.043Z,94.50
2019-06-07T06:28:58.655Z,94.40
2019-06-07T06:34:03.137Z,94.30
2019-06-07T06:39:08.752Z,94.20
2019-06-07T06:44:13.144Z,94.60
2019-06-07T06:49:17.538Z,94.10
2019-06-07T06:54:39.470Z,93.30
2019-06-07T06:59:38.807Z,92.90
2019-06-07T07:04:34.712Z,93.30
2019-06-07T07:09:39.175Z,92.80
2019-06-07T07:14:46.989Z,93.30
2019-06-07T07:19:52.298Z,92.80
2019-06-07T07:24:56.476Z,91.60
2019-06-07T07:30:34.848Z,91.20
2019-06-07T07:35:07.377Z,91.20
2019-06-07T07:40:55.721Z,90.60
2019-06-07T07:45:18.184Z,89.00
2019-06-07T07:50:22.549Z,87.50
2019-06-07T07:55:27.231Z,86.70
2019-06-07T08:05:43.021Z,86.30
2019-06-07T08:10:44.907Z,86.80
2019-06-07T08:15:53.333Z,84.80
2019-06-07T08:21:15.375Z,84.70
2019-06-07T08:26:02.068Z,83.50
2019-06-07T08:31:07.735Z,83.50
2019-06-07T08:36:20.285Z,84.40
2019-06-07T08:41:18.744Z,84.40
2019-06-07T08:46:23.132Z,83.30
2019-06-07T08:51:27.515Z,81.60
2019-06-07T08:56:31.882Z,83.30
2019-06-07T09:01:36.253Z,80.30
2019-06-07T09:07:02.380Z,80.30
2019-06-07T09:11:46.897Z,80.00
2019-06-07T09:16:51.338Z,79.10
2019-06-07T09:21:57.565Z,76.90
2019-06-07T09:27:05.140Z,73.90
2019-06-07T09:32:11.957Z,72.50
2019-06-07T09:38:03.163Z,72.90
2019-06-07T09:42:20.313Z,72.80
2019-06-07T09:47:32.649Z,71.20
2019-06-07T09:52:30.758Z,71.60
2019-06-07T09:57:35.217Z,69.00
2019-06-07T10:02:39.680Z,69.10
2019-06-07T10:08:00.162Z,69.20
2019-06-07T10:12:50.241Z,68.20
2019-06-07T10:17:54.651Z,67.40
2019-06-07T10:22:59.564Z,66.80
2019-06-07T10:28:04.035Z,65.70
2019-06-07T10:33:08.657Z,64.20
2019-06-07T10:38:13.146Z,66.00
2019-06-07T10:43:17.534Z,64.50
2019-06-07T10:48:24.358Z,65.70
2019-06-07T10:53:28.036Z,64.70
2019-06-07T10:58:32.434Z,65.50
2019-06-07T11:03:36.801Z,63.90
2019-06-07T11:08:41.205Z,62.20
2019-06-07T11:13:45.646Z,61.60
2019-06-07T11:18:50.034Z,59.10
2019-06-07T11:23:54.424Z,60.50
2019-06-07T11:28:58.888Z,57.90
2019-06-07T11:34:03.275Z,56.70
2019-06-07T11:39:10.952Z,58.20
2019-06-07T11:44:17.070Z,57.90
2019-06-07T11:49:22.087Z,56.70
2019-06-07T11:54:26.580Z,56.30
2019-06-07T11:59:30.951Z,56.10
2019-06-07T12:04:35.366Z,54.70
2019-06-07T12:09:55.430Z,55.00
2019-06-07T12:14:45.913Z,55.80
2019-06-07T12:19:50.430Z,54.90
2019-06-07T12:24:54.854Z,54.40
2019-06-07T12:29:59.245Z,52.50
2019-06-07T12:35:05.043Z,53.30
2019-06-07T12:40:10.301Z,54.60
2019-06-07T12:45:36.682Z,51.40
2019-06-07T12:50:25.248Z,50.20
2019-06-07T12:55:28.873Z,51.10
2019-06-07T13:00:33.365Z,51.60
2019-06-07T13:05:38.081Z,52.40
2019-06-07T13:10:42.485Z,54.10
2019-06-07T13:15:46.932Z,54.40
2019-06-07T13:20:55.221Z,55.90
2019-06-07T13:25:57.481Z,55.90
2019-06-07T13:31:01.909Z,56.60
2019-06-07T13:36:06.432Z,57.70
2019-06-07T13:41:10.944Z,58.70
2019-06-07T13:46:16.793Z,58.30
2019-06-07T13:51:23.232Z,58.50
2019-06-07T13:56:28.382Z,59.30
2019-06-07T14:01:32.819Z,59.30
2019-06-07T14:06:37.231Z,59.40
2019-06-07T14:11:50.639Z,58.90
2019-06-07T14:16:47.801Z,58.90
2019-06-07T14:21:52.308Z,58.90
2019-06-07T14:27:08.835Z,58.00
2019-06-07T14:32:13.293Z,57.80
2019-06-07T14:37:17.813Z,59.60
2019-06-07T14:42:23.417Z,66.20
2019-06-07T14:47:28.138Z,73.60
2019-06-07T14:52:33.426Z,82.20
2019-06-07T14:57:39.257Z,90.00
2019-06-07T15:02:43.720Z,92.10
2019-06-07T15:07:48.177Z,93.60
2019-06-07T15:12:52.578Z,94.70
2019-06-07T15:17:57.022Z,94.90
2019-06-07T15:23:01.470Z,94.80
2019-06-07T15:28:05.857Z,95.40
2019-06-07T15:33:10.313Z,96.30
2019-06-07T15:38:14.705Z,96.50
2019-06-07T15:43:19.216Z,96.70
2019-06-07T15:48:23.589Z,96.30
2019-06-07T15:53:28.008Z,96.80
2019-06-07T15:58:33.104Z,96.60
2019-06-07T16:03:38.039Z,97.00
2019-06-07T16:08:42.645Z,97.00
2019-06-07T16:13:48.382Z,96.90
2019-06-07T16:18:52.791Z,97.00
2019-06-07T16:23:57.160Z,96.80
2019-06-07T16:29:01.580Z,96.70
2019-06-07T16:34:06.097Z,96.80
2019-06-07T16:39:10.561Z,96.50
2019-06-07T16:44:14.923Z,96.50
2019-06-07T16:49:19.339Z,96.00
2019-06-07T16:54:23.803Z,96.30
2019-06-07T16:59:28.194Z,96.80
2019-06-07T17:04:32.583Z,96.80
2019-06-07T17:09:38.155Z,96.80
2019-06-07T17:14:42.593Z,97.20
2019-06-07T17:19:47.138Z,97.40
2019-06-07T17:24:51.673Z,97.00
2019-06-07T17:29:56.082Z,96.70
2019-06-07T17:35:00.456Z,97.20
2019-06-07T17:40:06.895Z,97.10
2019-06-07T17:45:12.828Z,96.80
2019-06-07T17:50:17.531Z,96.80
2019-06-07T17:55:22.093Z,96.50
2019-06-07T18:00:33.253Z,96.30
2019-06-07T18:05:37.392Z,96.30
2019-06-07T18:10:43.660Z,96.40
2019-06-07T18:15:53.993Z,96.00
2019-06-07T18:20:55.679Z,96.20
2019-06-07T18:26:00.182Z,96.60
2019-06-07T18:31:04.897Z,96.00
2019-06-07T18:36:09.374Z,94.60
2019-06-07T18:41:13.770Z,94.40
2019-06-07T18:46:18.167Z,94.70
2019-06-07T18:51:22.782Z,94.40
2019-06-07T18:56:29.222Z,94.60
2019-06-07T19:01:33.721Z,94.20
2019-06-07T19:06:38.146Z,94.50
2019-06-07T19:11:42.660Z,94.30
2019-06-07T19:16:47.034Z,94.60
2019-06-07T19:21:52.051Z,94.30
2019-06-07T19:26:56.756Z,94.60
2019-06-07T19:32:01.302Z,94.60
2019-06-07T19:37:05.784Z,94.70
2019-06-07T19:42:10.170Z,94.60
2019-06-07T19:47:14.608Z,94.50
2019-06-07T19:52:19.007Z,94.40
2019-06-07T19:57:23.449Z,94.50
2019-06-07T20:02:27.808Z,94.20
2019-06-07T20:07:32.208Z,94.70
2019-06-07T22:12:57.442Z,91.50
2019-06-07T22:40:50.678Z,91.30
